Time;durP1;ratioP1;P1;durP2;ratioP2;P2;SDS_P1;SDS_P2;PMS_P1;PMS_P2;Temp;Humidity;BMP_temperature;BMP_pressure;BME280_temperature;BME280_humidity;BME280_pressure;Samples;Min_cycle;Max_cycle;Signal;HPM_P1;HPM_P2
2023/05/11 00:01:15;;;;;;;3.60;2.10;;;;;;;10.66;43.27;101307.90;108207;1284;21991;-59
2023/05/11 00:03:41;;;;;;;4.20;2.70;;;;;;;10.64;43.47;101306.49;108252;1274;22024;-59
2023/05/11 00:06:07;;;;;;;5.90;2.60;;;;;;;10.63;43.46;101305.10;108190;1287;21989;-59
2023/05/11 00:08:33;;;;;;;5.20;2.70;;;;;;;10.66;43.65;101304.40;108209;1287;22465;-58
2023/05/11 00:11:01;;;;;;;4.70;2.60;;;;;;;10.69;43.57;101305.46;108092;1288;22001;-59
2023/05/11 00:13:27;;;;;;;4.10;2.30;;;;;;;10.74;43.66;101308.63;108115;1289;22001;-59
2023/05/11 00:15:53;;;;;;;5.30;2.20;;;;;;;10.78;43.91;101311.45;108170;1289;21990;-59
2023/05/11 00:18:20;;;;;;;3.20;2.00;;;;;;;10.86;43.80;101309.36;108244;1275;21998;-59
2023/05/11 00:20:45;;;;;;;3.50;2.10;;;;;;;10.91;43.58;101311.99;108145;1287;22454;-59
2023/05/11 00:23:11;;;;;;;4.10;2.20;;;;;;;10.86;43.28;101311.27;108289;1287;21988;-59
2023/05/11 00:25:38;;;;;;;6.90;2.90;;;;;;;10.76;43.27;101312.33;108207;1287;22024;-59
2023/05/11 00:28:03;;;;;;;3.70;2.30;;;;;;;10.66;43.35;101311.42;108141;1287;23715;-59
2023/05/11 00:30:29;;;;;;;3.60;2.40;;;;;;;10.58;43.58;101316.33;108061;1276;21997;-61
2023/05/11 00:32:55;;;;;;;4.40;3.30;;;;;;;10.56;43.91;101315.79;108071;1289;22027;-59
2023/05/11 00:35:21;;;;;;;4.70;2.20;;;;;;;10.56;43.58;101316.67;108067;1288;21992;-58
2023/05/11 00:37:47;;;;;;;3.60;2.20;;;;;;;10.56;43.83;101318.77;107386;1287;1003113;-59
2023/05/11 00:40:12;;;;;;;3.40;1.80;;;;;;;10.59;43.71;101317.20;108136;1287;22023;-59
2023/05/11 00:42:38;;;;;;;3.30;1.90;;;;;;;10.56;43.73;101320.35;108222;1287;21957;-60
2023/05/11 00:45:05;;;;;;;4.00;2.20;;;;;;;10.54;43.63;101323.67;108163;1287;21987;-60
2023/05/11 00:47:30;;;;;;;4.60;2.20;;;;;;;10.48;43.56;101321.73;108132;1287;21983;-59
2023/05/11 00:49:56;;;;;;;3.60;2.20;;;;;;;10.42;43.49;101321.70;108086;1288;21989;-59
2023/05/11 00:52:22;;;;;;;4.20;2.30;;;;;;;10.39;43.65;101318.19;108103;1289;21999;-60
2023/05/11 00:54:50;;;;;;;3.90;1.90;;;;;;;10.42;43.90;101322.21;108103;1289;22759;-59
2023/05/11 00:57:16;;;;;;;3.20;2.20;;;;;;;10.45;43.66;101324.54;108108;1277;21998;-58
2023/05/11 00:59:41;;;;;;;4.60;1.80;;;;;;;10.37;43.42;101323.95;108117;1288;21995;-58
2023/05/11 01:02:07;;;;;;;3.30;2.00;;;;;;;10.34;43.72;101323.05;108068;1289;22045;-60
2023/05/11 01:04:33;;;;;;;3.90;1.90;;;;;;;10.35;43.56;101322.36;108093;1278;21989;-58
2023/05/11 01:07:12;;;;;;;4.10;2.10;;;;;;;10.29;43.33;101321.28;108013;1287;21991;-58
2023/05/11 01:10:03;;;;;;;4.40;2.10;;;;;;;10.15;43.16;101319.81;108283;1287;24028;-58
2023/05/11 01:12:35;;;;;;;;;;;;;;;9.97;43.42;101317.63;108140;1287;21987;-59
2023/05/11 01:15:25;;;;;;;5.20;2.50;;;;;;;9.86;43.44;101318.27;108239;1284;22022;-58
2023/05/11 01:18:05;;;;;;;5.10;2.40;;;;;;;9.84;44.21;101315.45;108139;1287;21987;-58
2023/05/11 01:20:30;;;;;;;5.60;2.30;;;;;;;9.89;44.67;101314.96;108063;1289;21986;-59
2023/05/11 01:23:17;;;;;;;4.30;2.60;;;;;;;9.95;44.66;101312.88;107825;1288;21994;-58
2023/05/11 01:26:10;;;;;;;4.60;2.40;;;;;;;10.04;44.86;101313.80;107860;1287;21994;-58
2023/05/11 01:28:54;;;;;;;5.00;2.60;;;;;;;10.13;44.80;101312.80;108135;1287;21988;-59
2023/05/11 01:31:20;;;;;;;4.60;2.20;;;;;;;10.21;44.91;101311.95;108281;1287;21987;-58
2023/05/11 01:33:53;;;;;;;6.10;2.20;;;;;;;10.26;44.81;101311.27;107918;1287;21989;-59
2023/05/11 01:36:19;;;;;;;3.50;2.30;;;;;;;10.28;44.63;101309.36;108155;1278;22007;-58
2023/05/11 01:38:45;;;;;;;4.10;2.10;;;;;;;10.28;44.54;101312.69;107950;1288;21992;-60
2023/05/11 01:41:13;;;;;;;4.30;2.50;;;;;;;10.29;44.56;101313.21;107831;1289;22439;-59
2023/05/11 01:43:39;;;;;;;4.50;2.50;;;;;;;10.26;44.50;101311.96;107980;1277;22019;-58
2023/05/11 01:46:05;;;;;;;4.00;2.80;;;;;;;10.26;44.74;101313.02;108030;1287;21986;-58
2023/05/11 01:48:34;;;;;;;5.40;2.80;;;;;;;10.31;44.87;101306.73;107971;1287;21987;-59
2023/05/11 01:51:01;;;;;;;3.20;2.10;;;;;;;10.36;44.86;101307.98;108240;1287;21989;-59
2023/05/11 01:53:28;;;;;;;4.90;1.90;;;;;;;10.36;44.66;101308.15;108307;1287;21996;-58
2023/05/11 01:55:55;;;;;;;5.70;2.20;;;;;;;10.35;44.66;101306.39;108131;1287;21992;-58
2023/05/11 01:58:20;;;;;;;7.10;2.90;;;;;;;10.37;44.58;101305.35;108089;1288;21990;-58
2023/05/11 02:00:46;;;;;;;4.00;2.50;;;;;;;10.38;44.60;101306.95;107789;1289;21989;-59
2023/05/11 02:03:11;;;;;;;4.30;2.20;;;;;;;10.40;44.60;101308.71;107822;1275;21989;-59
2023/05/11 02:05:38;;;;;;;5.30;2.80;;;;;;;10.39;44.60;101309.58;107852;1287;22000;-59
2023/05/11 02:08:04;;;;;;;5.10;3.10;;;;;;;10.38;44.84;101308.67;108045;1284;21994;-59
2023/05/11 02:10:30;;;;;;;4.20;2.60;;;;;;;10.35;44.54;101310.08;108214;1287;21997;-58
2023/05/11 02:12:56;;;;;;;4.40;2.90;;;;;;;10.24;44.39;101308.98;107967;1287;22003;-59
2023/05/11 02:15:21;;;;;;;4.80;2.80;;;;;;;10.06;44.26;101311.00;108199;1287;21987;-58
2023/05/11 02:17:47;;;;;;;3.90;2.20;;;;;;;9.99;44.62;101313.78;107842;1288;21989;-59
2023/05/11 02:20:13;;;;;;;3.70;2.50;;;;;;;10.06;44.51;101316.61;107816;1288;22000;-58
2023/05/11 02:22:38;;;;;;;4.50;2.70;;;;;;;10.03;44.38;101316.95;107817;1288;21990;-60
2023/05/11 02:25:05;;;;;;;5.00;2.90;;;;;;;10.01;44.40;101317.81;108163;1288;21987;-59
2023/05/11 02:27:34;;;;;;;4.10;2.80;;;;;;;9.98;44.37;101314.81;108054;1288;21990;-58
2023/05/11 02:30:04;;;;;;;4.80;2.80;;;;;;;9.91;44.29;101319.34;108140;1288;21998;-59
2023/05/11 02:32:32;;;;;;;6.80;2.40;;;;;;;9.80;44.43;101323.66;108119;1287;21992;-58
2023/05/11 02:35:05;;;;;;;5.60;2.80;;;;;;;9.71;44.65;101326.59;108089;1287;21989;-59
2023/05/11 02:37:32;;;;;;;6.00;2.50;;;;;;;9.70;45.00;101334.11;108053;1280;21994;-60
2023/05/11 02:39:59;;;;;;;4.80;2.30;;;;;;;9.78;44.96;101337.85;108156;1287;21993;-59
2023/05/11 02:42:25;;;;;;;5.00;2.30;;;;;;;9.76;44.61;101336.77;108164;1287;21989;-57
2023/05/11 02:44:59;;;;;;;5.20;3.00;;;;;;;9.80;44.36;101334.00;108168;1287;21988;-58
2023/05/11 02:47:26;;;;;;;4.10;2.50;;;;;;;9.81;44.54;101337.70;108058;1287;22005;-57
2023/05/11 02:49:53;;;;;;;4.50;2.80;;;;;;;9.82;44.60;101339.11;108126;1284;21982;-59
2023/05/11 02:52:20;;;;;;;5.10;2.50;;;;;;;9.74;44.48;101339.93;107832;1287;21996;-58
2023/05/11 02:54:47;;;;;;;6.80;3.00;;;;;;;9.70;44.56;101342.71;107853;1287;22519;-59
2023/05/11 02:57:13;;;;;;;5.30;2.80;;;;;;;9.70;44.92;101342.89;108100;1287;21987;-58
2023/05/11 02:59:39;;;;;;;6.10;2.80;;;;;;;9.68;44.89;101345.66;108072;1287;22003;-59
2023/05/11 03:02:05;;;;;;;5.20;2.70;;;;;;;9.57;44.54;101348.22;107897;1287;21982;-59
2023/05/11 03:04:30;;;;;;;5.30;2.70;;;;;;;9.46;44.64;101351.30;108147;1287;21987;-59
2023/05/11 03:06:56;;;;;;;5.60;2.60;;;;;;;9.38;45.00;101353.33;108101;1287;21985;-58
2023/05/11 03:09:21;;;;;;;7.10;3.20;;;;;;;9.39;45.45;101352.64;107872;1286;21987;-59
2023/05/11 03:11:47;;;;;;;5.70;3.20;;;;;;;9.47;45.77;101352.01;107830;1277;21991;-59
2023/05/11 03:14:13;;;;;;;8.30;3.50;;;;;;;9.59;46.19;101352.98;107810;1289;22026;-57
2023/05/11 03:16:38;;;;;;;6.40;3.80;;;;;;;9.69;46.43;101347.77;108095;1289;22010;-58
2023/05/11 03:19:05;;;;;;;8.60;4.10;;;;;;;9.81;46.64;101349.08;108117;1288;21996;-59
2023/05/11 03:21:31;;;;;;;6.70;3.60;;;;;;;9.92;46.89;101350.38;108117;1287;21988;-58
2023/05/11 03:23:56;;;;;;;7.10;4.00;;;;;;;10.04;47.08;101351.50;108034;1287;21987;-59
2023/05/11 03:26:22;;;;;;;9.90;3.70;;;;;;;10.18;47.24;101353.86;107880;1288;21992;-59
2023/05/11 03:28:48;;;;;;;5.40;3.30;;;;;;;10.34;47.32;101352.17;108095;1288;21987;-58
2023/05/11 03:31:14;;;;;;;7.00;3.90;;;;;;;10.51;47.43;101354.91;107837;1289;21998;-60
2023/05/11 03:33:39;;;;;;;10.70;3.60;;;;;;;10.66;47.66;101358.46;108135;1287;21988;-59
2023/05/11 03:36:05;;;;;;;10.40;4.20;;;;;;;10.83;47.65;101359.39;108109;1287;21993;-58
2023/05/11 03:38:31;;;;;;;8.10;4.00;;;;;;;11.00;47.54;101358.54;107835;1288;22104;-59
2023/05/11 03:40:57;;;;;;;10.40;4.50;;;;;;;11.16;47.63;101364.54;108131;1285;22008;-60
2023/05/11 03:43:22;;;;;;;7.50;4.10;;;;;;;11.30;47.74;101365.23;107940;1288;21986;-60
2023/05/11 03:45:50;;;;;;;9.80;4.40;;;;;;;11.44;47.71;101366.65;107867;1288;21996;-60
2023/05/11 03:48:16;;;;;;;12.10;5.10;;;;;;;11.54;47.87;101364.02;108163;1289;23096;-60
2023/05/11 03:50:42;;;;;;;9.40;3.80;;;;;;;11.65;48.10;101366.30;104140;1288;1003178;-59
2023/05/11 03:53:08;;;;;;;6.80;4.20;;;;;;;11.78;48.27;101368.58;107831;1288;21994;-58
2023/05/11 03:55:33;;;;;;;8.40;4.70;;;;;;;11.91;48.78;101365.55;108086;1287;21997;-60
2023/05/11 03:57:59;;;;;;;10.20;4.60;;;;;;;12.05;48.81;101366.96;108096;1281;22026;-59
2023/05/11 04:00:25;;;;;;;8.00;4.70;;;;;;;12.22;49.15;101369.73;108083;1289;21989;-59
2023/05/11 04:02:51;;;;;;;7.20;4.20;;;;;;;12.39;49.38;101367.90;108080;1287;22455;-59
2023/05/11 04:05:18;;;;;;;7.20;4.00;;;;;;;12.56;49.72;101366.08;108097;1287;21996;-60
2023/05/11 04:07:43;;;;;;;5.80;3.40;;;;;;;12.75;49.89;101370.04;108060;1287;21989;-60
2023/05/11 04:10:09;;;;;;;6.10;3.50;;;;;;;12.94;50.17;101365.33;107856;1287;21994;-60
2023/05/11 04:12:35;;;;;;;4.90;3.40;;;;;;;13.16;50.18;101371.17;108055;1287;21999;-60
2023/05/11 04:15:00;;;;;;;5.60;3.70;;;;;;;13.34;50.32;101372.45;108089;1287;21994;-60
2023/05/11 04:17:26;;;;;;;5.60;3.10;;;;;;;13.55;50.05;101372.14;108126;1287;22004;-61
2023/05/11 04:19:51;;;;;;;8.20;4.80;;;;;;;13.70;50.36;101373.59;108130;1287;21987;-59
2023/05/11 04:22:17;;;;;;;6.80;3.60;;;;;;;13.87;50.22;101375.02;108086;1287;21990;-60
2023/05/11 04:24:43;;;;;;;4.70;3.30;;;;;;;14.04;50.22;101375.18;108060;1287;21993;-59
2023/05/11 04:27:08;;;;;;;6.40;3.20;;;;;;;14.21;50.19;101378.53;108106;1287;21993;-62
2023/05/11 04:29:35;;;;;;;4.40;2.70;;;;;;;14.38;50.20;101383.63;108078;1287;22064;-60
2023/05/11 04:32:00;;;;;;;7.60;3.40;;;;;;;14.55;50.55;101382.89;108141;1286;21991;-60
2023/05/11 04:34:26;;;;;;;4.40;2.70;;;;;;;14.75;50.73;101379.82;108127;1287;21989;-60
2023/05/11 04:36:52;;;;;;;5.00;3.40;;;;;;;14.98;50.45;101382.34;108118;1287;21993;-60
2023/05/11 04:39:18;;;;;;;5.20;2.90;;;;;;;15.19;50.43;101383.80;108192;1287;21991;-59
2023/05/11 04:41:43;;;;;;;5.30;3.10;;;;;;;15.43;50.86;101381.13;108039;1287;21995;-60
2023/05/11 04:44:09;;;;;;;6.40;3.30;;;;;;;15.69;51.08;101380.69;108044;1287;21996;-59
2023/05/11 04:46:37;;;;;;;7.60;2.90;;;;;;;15.96;51.18;101383.77;108125;1287;22000;-59
2023/05/11 04:49:06;;;;;;;3.80;2.60;;;;;;;16.22;50.89;101381.52;108064;1287;21989;-60
2023/05/11 04:51:32;;;;;;;4.80;2.40;;;;;;;16.43;50.68;101382.13;108043;1287;22002;-60
2023/05/11 04:53:58;;;;;;;6.40;3.10;;;;;;;16.64;50.55;101380.98;107929;1287;22358;-60
2023/05/11 04:56:23;;;;;;;5.90;3.00;;;;;;;16.83;49.93;101380.58;108089;1287;21984;-60
2023/05/11 04:58:49;;;;;;;5.70;3.00;;;;;;;16.96;49.79;101380.13;108149;1287;21987;-59
2023/05/11 05:01:15;;;;;;;6.70;2.70;;;;;;;17.12;49.91;101378.70;108022;1287;21990;-61
2023/05/11 05:03:40;;;;;;;6.90;2.80;;;;;;;17.27;49.83;101377.10;108055;1287;22454;-58
2023/05/11 05:06:06;;;;;;;4.70;2.70;;;;;;;17.44;49.54;101379.34;108058;1287;23058;-61
2023/05/11 05:08:32;;;;;;;5.40;2.20;;;;;;;17.61;49.40;101383.55;108047;1287;22456;-60
2023/05/11 05:10:58;;;;;;;7.20;2.40;;;;;;;17.79;49.10;101379.52;108076;1287;22030;-60
2023/05/11 05:13:23;;;;;;;5.40;2.80;;;;;;;17.94;48.83;101377.36;108052;1287;23715;-60
2023/05/11 05:15:49;;;;;;;7.10;3.00;;;;;;;18.10;48.60;101378.19;107900;1287;21987;-60
2023/05/11 05:18:15;;;;;;;4.60;3.10;;;;;;;18.22;47.72;101377.31;108128;1287;23715;-59
2023/05/11 05:20:41;;;;;;;4.00;2.90;;;;;;;18.29;47.05;101380.16;108026;1287;23672;-60
2023/05/11 05:23:06;;;;;;;5.90;2.70;;;;;;;18.42;47.81;101384.05;108028;1287;21992;-60
2023/05/11 05:25:32;;;;;;;8.70;2.40;;;;;;;18.64;47.93;101383.58;108048;1287;22030;-62
2023/05/11 05:27:58;;;;;;;4.50;2.30;;;;;;;18.90;47.99;101386.54;108091;1287;21994;-59
2023/05/11 05:30:24;;;;;;;5.30;2.20;;;;;;;19.18;48.01;101387.44;108053;1287;23096;-59
2023/05/11 05:32:50;;;;;;;7.60;2.50;;;;;;;19.45;47.77;101388.34;108103;1287;21987;-60
2023/05/11 05:35:15;;;;;;;5.90;2.80;;;;;;;19.70;47.38;101385.20;108047;1287;21991;-61
2023/05/11 05:37:41;;;;;;;5.20;2.50;;;;;;;19.92;47.07;101381.95;108033;1287;21992;-61
2023/05/11 05:40:07;;;;;;;5.80;2.70;;;;;;;20.14;46.81;101384.94;108042;1287;21991;-60
2023/05/11 05:42:33;;;;;;;5.40;2.80;;;;;;;20.34;46.59;101383.83;108040;1287;23608;-60
2023/05/11 05:44:59;;;;;;;5.00;2.90;;;;;;;20.55;46.22;101383.60;108067;1287;21957;-60
2023/05/11 05:47:25;;;;;;;5.90;2.60;;;;;;;20.73;45.72;101384.88;108049;1287;21989;-61
2023/05/11 05:49:50;;;;;;;5.90;2.60;;;;;;;20.89;45.51;101383.37;108014;1287;21991;-59
2023/05/11 05:52:16;;;;;;;7.60;2.90;;;;;;;21.08;45.54;101386.73;108039;1287;22050;-60
2023/05/11 05:54:42;;;;;;;5.90;2.70;;;;;;;21.34;45.30;101383.72;108058;1287;23635;-61
2023/05/11 05:57:07;;;;;;;5.80;2.50;;;;;;;21.53;44.08;101381.52;108063;1287;21994;-61
2023/05/11 05:59:33;;;;;;;3.80;1.90;;;;;;;21.60;43.87;101380.86;108131;1283;21997;-61
2023/05/11 06:01:59;;;;;;;6.90;2.40;;;;;;;21.78;44.02;101379.92;108103;1287;21987;-59
2023/05/11 06:04:25;;;;;;;8.80;2.40;;;;;;;22.01;44.01;101376.80;108086;1287;23149;-59
2023/05/11 06:06:51;;;;;;;7.30;3.30;;;;;;;22.25;43.74;101379.08;108064;1287;23756;-59
2023/05/11 06:09:16;;;;;;;4.50;2.20;;;;;;;22.47;43.30;101379.38;108060;1287;22782;-60
2023/05/11 06:11:42;;;;;;;4.40;2.20;;;;;;;22.69;43.11;101375.52;108082;1284;21992;-60
2023/05/11 06:14:08;;;;;;;5.30;2.00;;;;;;;22.88;42.58;101377.66;108071;1286;21992;-60
2023/05/11 06:16:33;;;;;;;3.50;2.40;;;;;;;22.97;42.01;101376.85;107885;1287;21998;-60
2023/05/11 06:18:59;;;;;;;4.10;2.00;;;;;;;23.08;42.00;101377.60;108078;1287;22031;-60
2023/05/11 06:21:25;;;;;;;4.70;2.10;;;;;;;23.24;41.85;101375.21;108079;1287;23255;-62
2023/05/11 06:23:51;;;;;;;3.20;1.80;;;;;;;23.38;40.88;101376.70;108114;1287;21989;-61
2023/05/11 06:26:17;;;;;;;4.50;2.10;;;;;;;23.46;41.20;101375.36;108061;1287;21994;-61
2023/05/11 06:28:44;;;;;;;9.00;3.10;;;;;;;23.64;41.01;101373.93;107867;1288;23612;-62
2023/05/11 06:31:10;;;;;;;11.70;2.50;;;;;;;23.84;40.83;101378.45;108065;1288;22245;-62
2023/05/11 06:33:36;;;;;;;8.00;2.60;;;;;;;24.03;40.65;101376.91;108106;1288;21995;-60
2023/05/11 06:36:05;;;;;;;6.40;2.40;;;;;;;24.20;40.38;101373.00;108066;1288;21995;-60
2023/05/11 06:38:31;;;;;;;4.60;2.30;;;;;;;24.33;40.38;101372.84;108129;1288;22068;-60
2023/05/11 06:40:57;;;;;;;4.90;2.30;;;;;;;24.52;40.15;101374.11;108097;1288;22080;-62
2023/05/11 06:43:23;;;;;;;5.20;2.60;;;;;;;24.72;39.93;101376.09;108086;1288;22081;-60
2023/05/11 06:45:49;;;;;;;4.20;2.40;;;;;;;24.86;39.53;101374.78;108115;1288;23618;-61
2023/05/11 06:48:15;;;;;;;5.30;2.60;;;;;;;25.04;39.36;101375.77;108123;1288;21994;-60
2023/05/11 06:50:41;;;;;;;4.30;2.10;;;;;;;25.22;39.15;101374.71;107839;1288;22002;-61
2023/05/11 06:53:07;;;;;;;4.30;2.70;;;;;;;25.37;38.20;101370.98;108135;1288;21996;-60
2023/05/11 06:55:33;;;;;;;3.80;2.40;;;;;;;25.40;38.32;101370.04;108154;1288;22002;-60
2023/05/11 06:57:59;;;;;;;3.50;2.20;;;;;;;25.56;38.66;101370.77;108127;1288;23644;-61
2023/05/11 07:00:25;;;;;;;6.30;2.50;;;;;;;25.75;38.26;101364.97;108138;1288;22627;-62
2023/05/11 07:02:51;;;;;;;4.50;2.10;;;;;;;25.88;37.78;101366.33;108121;1288;22080;-61
2023/05/11 07:05:17;;;;;;;4.00;2.50;;;;;;;26.01;37.36;101362.88;108123;1288;22055;-60
2023/05/11 07:07:43;;;;;;;4.90;2.20;;;;;;;26.03;36.61;101363.27;108200;1287;21989;-60
2023/05/11 07:10:10;;;;;;;5.80;2.30;;;;;;;26.11;37.50;101364.77;108128;1287;21998;-60
2023/05/11 07:12:36;;;;;;;4.10;2.10;;;;;;;26.38;37.62;101367.23;108116;1287;22235;-62
2023/05/11 07:15:02;;;;;;;3.70;2.20;;;;;;;26.61;36.45;101365.43;108114;1287;21992;-62
2023/05/11 07:17:28;;;;;;;3.30;1.90;;;;;;;26.64;35.71;101365.41;108148;1287;21998;-61
2023/05/11 07:19:54;;;;;;;7.80;2.10;;;;;;;26.58;34.82;101368.31;108156;1287;21996;-61
2023/05/11 07:22:21;;;;;;;9.60;2.60;;;;;;;26.53;34.95;101370.58;108168;1287;22024;-62
2023/05/11 07:24:46;;;;;;;5.70;2.10;;;;;;;26.55;35.30;101368.66;108060;1287;24330;-62
2023/05/11 07:27:13;;;;;;;5.20;1.60;;;;;;;26.75;35.48;101369.57;108097;1287;21996;-63
2023/05/11 07:29:39;;;;;;;4.20;2.20;;;;;;;27.04;35.69;101372.02;108099;1287;21986;-61
2023/05/11 07:32:05;;;;;;;5.50;2.10;;;;;;;27.38;35.97;101373.73;108080;1287;24971;-62
2023/05/11 07:34:31;;;;;;;4.20;2.00;;;;;;;27.68;35.69;101373.89;108137;1286;22008;-62
2023/05/11 07:36:56;;;;;;;5.60;1.80;;;;;;;27.90;35.18;101372.92;108061;1287;22641;-62
2023/05/11 07:39:22;;;;;;;3.70;1.80;;;;;;;28.03;34.70;101369.65;108051;1287;23708;-62
2023/05/11 07:41:48;;;;;;;4.50;2.00;;;;;;;28.13;34.47;101367.36;108046;1287;21983;-62
2023/05/11 07:44:13;;;;;;;4.70;2.00;;;;;;;28.31;34.84;101364.27;108059;1287;21995;-61
2023/05/11 07:46:39;;;;;;;8.10;2.10;;;;;;;28.54;34.89;101360.45;108072;1286;21979;-62
2023/05/11 07:49:05;;;;;;;6.90;2.20;;;;;;;28.84;34.65;101359.56;108091;1287;22182;-61
2023/05/11 07:51:31;;;;;;;10.60;2.40;;;;;;;29.13;34.58;101359.92;108067;1287;21993;-63
2023/05/11 07:53:56;;;;;;;3.50;1.50;;;;;;;29.35;31.98;101356.27;107877;1288;21995;-62
2023/05/11 07:56:22;;;;;;;6.20;1.50;;;;;;;29.28;31.98;101355.55;108011;1287;21989;-62
2023/05/11 07:58:47;;;;;;;4.60;1.70;;;;;;;29.37;33.08;101354.20;108034;1287;21989;-62
2023/05/11 08:01:13;;;;;;;4.90;1.60;;;;;;;29.61;33.31;101351.59;108081;1287;22456;-63
2023/05/11 08:03:39;;;;;;;4.80;1.70;;;;;;;29.86;33.04;101351.48;108074;1287;24406;-60
2023/05/11 08:06:06;;;;;;;5.60;2.20;;;;;;;30.22;33.63;101352.61;108161;1287;22739;-60
2023/05/11 08:08:32;;;;;;;9.10;1.80;;;;;;;30.63;32.90;101354.63;108081;1287;21996;-60
2023/05/11 08:10:58;;;;;;;4.30;1.40;;;;;;;30.86;32.29;101351.98;108097;1287;21995;-62
2023/05/11 08:13:25;;;;;;;7.70;1.80;;;;;;;31.06;31.34;101348.35;108050;1286;22004;-60
2023/05/11 08:15:50;;;;;;;3.60;1.60;;;;;;;31.12;30.91;101344.82;108099;1287;21992;-61
2023/05/11 08:18:17;;;;;;;2.80;1.50;;;;;;;31.17;31.52;101340.73;108056;1287;22005;-60
2023/05/11 08:20:42;;;;;;;2.70;1.40;;;;;;;31.21;31.42;101337.86;108048;1284;22004;-61
2023/05/11 08:23:09;;;;;;;2.70;1.30;;;;;;;31.31;30.65;101334.34;108055;1287;21989;-60
2023/05/11 08:25:35;;;;;;;4.70;2.80;;;;;;;31.41;29.73;101336.69;108140;1287;22044;-62
2023/05/11 08:28:01;;;;;;;2.70;1.30;;;;;;;31.20;26.61;101341.05;108085;1287;22093;-62
2023/05/11 08:30:27;;;;;;;3.40;1.50;;;;;;;30.60;28.90;101339.81;108090;1286;21987;-61
2023/05/11 08:32:53;;;;;;;6.20;1.30;;;;;;;30.56;30.07;101341.41;108150;1287;21991;-61
2023/05/11 08:35:19;;;;;;;4.20;1.70;;;;;;;30.81;29.11;101343.00;107768;1287;24454;-61
2023/05/11 08:37:45;;;;;;;4.40;1.60;;;;;;;30.87;29.11;101340.36;107759;1287;21992;-61
2023/05/11 08:40:11;;;;;;;6.10;1.20;;;;;;;31.02;29.45;101341.60;108103;1287;23077;-62
2023/05/11 08:42:39;;;;;;;2.30;1.50;;;;;;;31.24;29.64;101340.31;108063;1283;24239;-60
2023/05/11 08:45:06;;;;;;;5.50;1.60;;;;;;;31.52;29.21;101338.65;108160;1285;21986;-60
2023/05/11 08:47:32;;;;;;;3.50;1.50;;;;;;;31.78;28.39;101334.30;108200;1287;21993;-64
2023/05/11 08:49:58;;;;;;;2.70;1.30;;;;;;;31.64;26.23;101332.42;108175;1287;22064;-62
2023/05/11 08:52:25;;;;;;;5.40;1.30;;;;;;;31.47;28.18;101334.76;108182;1287;21979;-64
2023/05/11 08:54:52;;;;;;;8.30;1.50;;;;;;;31.72;28.77;101341.34;107804;1288;186751;-64
2023/05/11 08:57:18;;;;;;;5.00;1.30;;;;;;;32.04;28.28;101335.41;108114;1287;21991;-61
2023/05/11 08:59:45;;;;;;;4.50;1.50;;;;;;;32.27;27.59;101330.20;107906;1287;23729;-64
2023/05/11 09:02:15;;;;;;;3.00;1.40;;;;;;;32.54;28.27;101330.86;108119;1287;21992;-59
2023/05/11 09:04:41;;;;;;;2.30;1.40;;;;;;;32.87;28.31;101328.79;108054;1287;23643;-62
2023/05/11 09:07:06;;;;;;;4.40;1.50;;;;;;;33.12;26.63;101323.20;107841;1287;21991;-62
2023/05/11 09:09:32;;;;;;;2.40;1.20;;;;;;;33.23;26.73;101319.86;107914;1287;21989;-61
2023/05/11 09:11:58;;;;;;;3.40;1.60;;;;;;;33.40;27.01;101318.27;108062;1287;23609;-62
2023/05/11 09:14:23;;;;;;;4.30;1.40;;;;;;;33.45;24.44;101315.20;107827;1288;23203;-62
2023/05/11 09:16:49;;;;;;;2.00;1.30;;;;;;;32.91;23.39;101315.63;107887;1287;21990;-60
2023/05/11 09:19:15;;;;;;;3.40;1.40;;;;;;;32.44;25.30;101318.52;108050;1287;21986;-61
2023/05/11 09:21:41;;;;;;;4.70;2.10;;;;;;;32.54;26.43;101315.09;108122;1287;21988;-61
2023/05/11 09:24:10;;;;;;;5.10;1.30;;;;;;;32.82;25.38;101314.58;108153;1287;21994;-59
2023/05/11 09:26:36;;;;;;;3.00;1.50;;;;;;;32.86;24.60;101312.36;107868;1287;22030;-62
2023/05/11 09:29:02;;;;;;;1.70;1.10;;;;;;;32.61;22.83;101310.45;107888;1287;23609;-59
2023/05/11 09:31:42;;;;;;;2.00;1.00;;;;;;;32.32;24.50;101309.82;108156;1287;22746;-61
2023/05/11 09:34:15;;;;;;;1.90;1.10;;;;;;;32.61;25.07;101305.17;108205;1287;22102;-61
2023/05/11 09:36:48;;;;;;;2.80;1.10;;;;;;;33.05;24.91;101300.55;108166;1287;21991;-62
2023/05/11 09:39:13;;;;;;;11.20;1.60;;;;;;;33.48;25.08;101298.59;108156;1287;21994;-61
2023/05/11 09:41:39;;;;;;;7.30;1.60;;;;;;;33.93;25.27;101293.61;108063;1287;21993;-59
2023/05/11 09:44:09;;;;;;;2.90;1.30;;;;;;;34.39;25.38;101292.01;108059;1287;21988;-61
2023/05/11 09:46:37;;;;;;;3.00;1.20;;;;;;;34.85;25.24;101293.95;107895;1287;23777;-60
2023/05/11 09:49:03;;;;;;;3.60;1.40;;;;;;;35.14;24.82;101293.31;108136;1287;23131;-63
2023/05/11 09:51:32;;;;;;;2.60;1.60;;;;;;;35.11;23.25;101293.93;108052;1287;22081;-62
2023/05/11 09:53:59;;;;;;;3.50;1.40;;;;;;;34.35;21.53;101293.98;108129;1287;21988;-59
2023/05/11 09:56:48;;;;;;;2.80;1.50;;;;;;;33.33;20.45;101292.48;108192;1287;21987;-60
2023/05/11 09:59:14;;;;;;;3.30;1.40;;;;;;;32.16;21.24;101294.65;108158;1287;21989;-59
2023/05/11 10:01:41;;;;;;;4.70;1.50;;;;;;;31.60;23.36;101294.81;108096;1287;21979;-62
2023/05/11 10:04:10;;;;;;;2.10;1.40;;;;;;;31.75;24.63;101290.66;108032;1287;21987;-60
2023/05/11 10:06:49;;;;;;;5.50;1.60;;;;;;;32.25;24.92;101289.17;108177;1286;21991;-64
2023/05/11 10:09:16;;;;;;;3.00;1.30;;;;;;;32.89;23.97;101280.46;108002;1287;22232;-65
2023/05/11 10:11:43;;;;;;;8.30;1.30;;;;;;;33.38;25.13;101280.07;108122;1287;21991;-61
2023/05/11 10:14:13;;;;;;;6.30;1.50;;;;;;;33.98;23.38;101274.70;108189;1287;21974;-62
2023/05/11 10:16:40;;;;;;;5.20;1.40;;;;;;;34.19;22.28;101275.36;108199;1287;21986;-64
2023/05/11 10:19:06;;;;;;;5.80;1.30;;;;;;;34.34;23.02;101270.30;108043;1287;22005;-61
2023/05/11 10:21:33;;;;;;;10.30;1.40;;;;;;;34.68;23.54;101268.34;108141;1287;21987;-63
2023/05/11 10:23:59;;;;;;;5.30;1.50;;;;;;;35.09;23.83;101261.88;108184;1287;21995;-61
2023/05/11 10:26:25;;;;;;;12.50;1.80;;;;;;;35.29;23.22;101265.97;108196;1287;22039;-61
2023/05/11 10:28:51;;;;;;;10.20;2.10;;;;;;;35.12;23.61;101266.11;107985;1287;22079;-61
2023/05/11 10:31:22;;;;;;;5.30;1.60;;;;;;;34.93;23.97;101265.14;108130;1287;21998;-63
2023/05/11 10:33:51;;;;;;;3.90;1.40;;;;;;;34.81;23.96;101265.73;108052;1287;22026;-61
2023/05/11 10:36:17;;;;;;;1.60;1.10;;;;;;;34.81;23.30;101269.60;108131;1287;22028;-64
2023/05/11 10:38:43;;;;;;;1.90;1.40;;;;;;;34.45;20.67;101265.19;107844;1287;23650;-61
2023/05/11 10:41:36;;;;;;;2.90;1.20;;;;;;;33.50;21.27;101267.09;108105;1287;21985;-62
2023/05/11 10:44:26;;;;;;;3.40;1.60;;;;;;;32.99;22.90;101268.64;108117;1287;22109;-62
2023/05/11 10:47:20;;;;;;;6.20;1.80;;;;;;;32.83;23.14;101264.13;108071;1287;21990;-61
2023/05/11 10:50:21;;;;;;;3.40;1.40;;;;;;;32.62;23.40;101267.84;107834;1287;21997;-60
2023/05/11 10:53:05;;;;;;;4.50;1.60;;;;;;;32.49;23.55;101267.38;107657;1283;22742;-61
2023/05/11 10:55:36;;;;;;;5.10;1.60;;;;;;;32.54;23.59;101268.62;108072;1287;21989;-59
2023/05/11 10:58:14;;;;;;;5.90;1.60;;;;;;;32.48;23.54;101268.61;107911;1287;23771;-61
2023/05/11 11:00:52;;;;;;;3.30;1.60;;;;;;;32.30;23.76;101270.18;107839;1287;21989;-60
2023/05/11 11:03:18;;;;;;;2.70;1.30;;;;;;;32.17;23.76;101272.98;108155;1287;21986;-61
2023/05/11 11:05:45;;;;;;;3.60;1.40;;;;;;;32.08;23.90;101274.49;107850;1287;23819;-62
2023/05/11 11:08:10;;;;;;;6.20;1.80;;;;;;;32.04;23.97;101271.56;107781;1288;22192;-59
2023/05/11 11:10:50;;;;;;;3.60;1.20;;;;;;;32.01;24.01;101271.99;108087;1287;21994;-58
2023/05/11 11:13:18;;;;;;;3.30;1.30;;;;;;;32.17;24.25;101267.21;108067;1287;21996;-59
2023/05/11 11:15:53;;;;;;;4.80;1.60;;;;;;;32.51;24.41;101266.78;108064;1287;22029;-58
2023/05/11 11:18:26;;;;;;;8.90;1.40;;;;;;;32.99;24.13;101263.36;108083;1287;22022;-58